Time;durP1;ratioP1;P1;durP2;ratioP2;P2;SDS_P1;SDS_P2;PMS_P1;PMS_P2;Temp;Humidity;BMP_temperature;BMP_pressure;BME280_temperature;BME280_humidity;BME280_pressure;Samples;Min_cycle;Max_cycle;Signal;HPM_P1;HPM_P2
2023/04/19 00:02:24;;;;;;;11.75;4.70;;;11.20;99.90;;;;;;4914752;28;20390;-65
2023/04/19 00:04:50;;;;;;;8.15;4.72;;;11.20;99.90;;;;;;4915596;29;20044;-65
2023/04/19 00:07:17;;;;;;;8.93;4.28;;;11.20;99.90;;;;;;4912997;29;20542;-65
2023/04/19 00:09:43;;;;;;;6.88;3.60;;;11.20;99.90;;;;;;4912548;28;20905;-64
2023/04/19 00:12:08;;;;;;;8.07;4.55;;;11.20;99.90;;;;;;4913102;28;20111;-65
2023/04/19 00:14:34;;;;;;;9.07;4.35;;;11.20;99.90;;;;;;4917451;28;20067;-65
2023/04/19 00:17:00;;;;;;;6.82;4.07;;;11.20;99.90;;;;;;4895260;28;20040;-65
2023/04/19 00:19:26;;;;;;;6.30;3.90;;;11.10;99.90;;;;;;4920296;28;20208;-64
2023/04/19 00:21:51;;;;;;;7.00;4.35;;;11.20;99.90;;;;;;4891402;28;20559;-64
2023/04/19 00:24:17;;;;;;;6.20;4.00;;;11.10;99.90;;;;;;4913080;28;20032;-65
2023/04/19 00:26:43;;;;;;;9.80;4.40;;;11.10;99.90;;;;;;4928385;28;20505;-65
2023/04/19 00:29:09;;;;;;;6.13;3.78;;;11.10;99.90;;;;;;4911960;28;20026;-64
2023/04/19 00:31:35;;;;;;;10.18;5.00;;;11.10;99.90;;;;;;4906625;29;20497;-65
2023/04/19 00:34:01;;;;;;;5.82;3.50;;;11.10;99.90;;;;;;4912424;29;20070;-64
2023/04/19 00:36:27;;;;;;;6.82;3.55;;;11.10;99.90;;;;;;4911185;29;20028;-64
2023/04/19 00:38:53;;;;;;;6.10;3.80;;;11.00;99.90;;;;;;4909052;29;20031;-64
2023/04/19 00:41:18;;;;;;;5.82;3.45;;;11.10;99.90;;;;;;4910937;29;20486;-64
2023/04/19 00:43:44;;;;;;;7.55;4.15;;;11.00;99.90;;;;;;4912352;28;20029;-64
2023/04/19 00:46:10;;;;;;;6.78;3.70;;;11.00;99.90;;;;;;4907701;29;20115;-65
2023/04/19 00:48:35;;;;;;;8.50;3.65;;;11.00;99.90;;;;;;4905622;29;20119;-64
2023/04/19 00:51:02;;;;;;;7.53;4.07;;;11.00;99.90;;;;;;4905899;29;20034;-65
2023/04/19 00:53:28;;;;;;;6.07;3.42;;;11.00;99.90;;;;;;4904819;29;20107;-65
2023/04/19 00:55:58;;;;;;;5.53;4.07;;;11.00;99.90;;;;;;4906771;29;20012;-65
2023/04/19 00:58:24;;;;;;;5.90;3.55;;;11.00;99.90;;;;;;4905845;29;20032;-65
2023/04/19 01:00:51;;;;;;;6.82;3.58;;;11.00;99.90;;;;;;4912574;29;20482;-65
2023/04/19 01:03:17;;;;;;;7.15;3.58;;;11.00;99.90;;;;;;4918897;29;20036;-65
2023/04/19 01:05:42;;;;;;;5.55;3.33;;;11.10;99.90;;;;;;4914053;29;20028;-65
2023/04/19 01:08:08;;;;;;;6.40;3.50;;;11.00;99.90;;;;;;4912635;29;20028;-65
2023/04/19 01:10:33;;;;;;;7.03;3.83;;;11.10;99.90;;;;;;4918600;29;20028;-65
2023/04/19 01:12:59;;;;;;;6.97;4.47;;;11.10;99.90;;;;;;4923838;29;20020;-65
2023/04/19 01:15:25;;;;;;;9.00;4.30;;;11.00;99.90;;;;;;4915050;29;20151;-65
2023/04/19 01:17:51;;;;;;;5.75;3.78;;;11.00;99.90;;;;;;4899837;28;20070;-64
2023/04/19 01:20:16;;;;;;;6.65;4.05;;;11.00;99.90;;;;;;4915662;28;20019;-65
2023/04/19 01:22:42;;;;;;;9.82;4.55;;;10.90;99.90;;;;;;4917777;28;20028;-64
2023/04/19 01:25:08;;;;;;;7.55;3.67;;;10.90;99.90;;;;;;4910926;28;20421;-65
2023/04/19 01:27:34;;;;;;;7.50;3.90;;;11.00;99.90;;;;;;4912919;28;20028;-65
2023/04/19 01:29:59;;;;;;;6.88;3.63;;;11.00;99.90;;;;;;4919282;28;20079;-65
2023/04/19 01:32:25;;;;;;;10.45;4.18;;;11.00;99.90;;;;;;4904862;29;20466;-65
2023/04/19 01:34:51;;;;;;;8.18;4.35;;;10.90;99.90;;;;;;4910747;28;20016;-64
2023/04/19 01:37:17;;;;;;;8.10;4.80;;;10.90;99.90;;;;;;4906824;29;20035;-64
2023/04/19 01:39:43;;;;;;;6.97;4.13;;;10.90;99.90;;;;;;4948177;22;20032;-66
2023/04/19 01:42:08;;;;;;;5.75;3.47;;;10.90;99.90;;;;;;4918137;29;20027;-65
2023/04/19 01:44:34;;;;;;;4.70;3.50;;;10.90;99.90;;;;;;4922954;29;20035;-65
2023/04/19 01:47:00;;;;;;;7.30;4.30;;;10.90;99.90;;;;;;4922570;29;20158;-65
2023/04/19 01:49:25;;;;;;;7.05;5.00;;;10.90;99.90;;;;;;4926618;28;20118;-64
2023/04/19 01:51:51;;;;;;;7.90;4.22;;;11.00;99.90;;;;;;4904041;28;20472;-65
2023/04/19 01:54:16;;;;;;;6.95;4.13;;;11.00;99.90;;;;;;4903891;28;20036;-65
2023/04/19 01:56:42;;;;;;;6.50;3.45;;;11.00;99.90;;;;;;4924382;28;20021;-65
2023/04/19 01:59:07;;;;;;;7.35;3.72;;;11.00;99.90;;;;;;4903646;29;21693;-65
2023/04/19 02:01:33;;;;;;;7.53;4.22;;;11.00;99.90;;;;;;4900823;28;20036;-66
2023/04/19 02:03:59;;;;;;;9.30;4.50;;;11.00;99.90;;;;;;4917915;28;20082;-66
2023/04/19 02:06:25;;;;;;;5.57;3.53;;;11.00;99.90;;;;;;4908968;29;20550;-65
2023/04/19 02:08:51;;;;;;;9.30;4.30;;;11.00;99.90;;;;;;4903659;29;20035;-65
2023/04/19 02:11:17;;;;;;;9.57;4.75;;;11.00;99.90;;;;;;4923349;28;20032;-66
2023/04/19 02:13:42;;;;;;;9.00;4.70;;;11.00;99.90;;;;;;4908872;28;20036;-65
2023/04/19 02:16:10;;;;;;;7.63;4.57;;;11.00;99.90;;;;;;4901359;28;20029;-65
2023/04/19 02:18:40;;;;;;;6.90;3.92;;;11.00;99.90;;;;;;4890313;28;20079;-65
2023/04/19 02:21:07;;;;;;;9.38;4.78;;;11.00;99.90;;;;;;4898668;29;20083;-65
2023/04/19 02:23:33;;;;;;;10.00;4.90;;;11.00;99.90;;;;;;4907894;28;20047;-65
2023/04/19 02:26:01;;;;;;;9.98;4.63;;;11.00;99.90;;;;;;4909872;28;20091;-65
2023/04/19 02:28:27;;;;;;;9.27;5.40;;;11.00;99.90;;;;;;4905990;28;20044;-66
2023/04/19 02:30:53;;;;;;;7.22;4.57;;;11.00;99.90;;;;;;4903436;28;20116;-64
2023/04/19 02:33:18;;;;;;;8.00;5.00;;;11.00;99.90;;;;;;4908028;28;20103;-65
2023/04/19 02:35:44;;;;;;;10.30;5.32;;;11.00;99.90;;;;;;4907707;28;20028;-65
2023/04/19 02:38:09;;;;;;;8.00;4.95;;;11.00;99.90;;;;;;4902181;28;20052;-65
2023/04/19 02:40:35;;;;;;;6.03;4.40;;;10.90;99.90;;;;;;4904569;28;20082;-66
2023/04/19 02:43:02;;;;;;;8.75;4.53;;;10.90;99.90;;;;;;4900526;29;20029;-64
2023/04/19 02:45:27;;;;;;;8.13;5.05;;;10.90;99.90;;;;;;4905939;29;20028;-65
2023/04/19 02:47:53;;;;;;;6.68;4.22;;;10.90;99.90;;;;;;4901764;28;20548;-65
2023/04/19 02:50:19;;;;;;;7.75;4.88;;;10.90;99.90;;;;;;4896902;28;20406;-64
2023/04/19 02:52:44;;;;;;;8.15;4.90;;;10.90;99.90;;;;;;4902889;28;20028;-65
2023/04/19 02:55:10;;;;;;;11.32;5.13;;;10.90;99.90;;;;;;4903820;29;20277;-65
2023/04/19 02:57:35;;;;;;;6.45;4.20;;;10.80;99.90;;;;;;4901344;28;20537;-65
2023/04/19 03:00:01;;;;;;;8.63;4.72;;;10.80;99.90;;;;;;4904244;28;20032;-64
2023/04/19 03:02:27;;;;;;;11.23;4.97;;;10.80;99.90;;;;;;4901425;29;20037;-65
2023/04/19 03:04:53;;;;;;;9.60;5.07;;;10.80;99.90;;;;;;4905632;29;20024;-64
2023/04/19 03:07:18;;;;;;;9.10;4.93;;;10.80;99.90;;;;;;4901923;28;20564;-65
2023/04/19 03:09:44;;;;;;;7.95;4.57;;;10.90;99.90;;;;;;4902404;29;20028;-65
2023/04/19 03:12:10;;;;;;;8.27;4.78;;;10.90;99.90;;;;;;4902040;29;20166;-65
2023/04/19 03:14:35;;;;;;;13.32;5.20;;;10.90;99.90;;;;;;4906063;28;20052;-64
2023/04/19 03:17:02;;;;;;;8.93;5.03;;;10.90;99.90;;;;;;4908456;29;20024;-65
2023/04/19 03:19:28;;;;;;;7.78;5.00;;;10.90;99.90;;;;;;4890026;28;20059;-65
2023/04/19 03:21:54;;;;;;;9.20;5.78;;;10.90;99.90;;;;;;4901857;29;20040;-65
2023/04/19 03:24:26;;;;;;;7.72;4.72;;;10.90;99.90;;;;;;4905393;29;20079;-65
2023/04/19 03:26:52;;;;;;;10.07;5.32;;;10.90;99.90;;;;;;4909118;28;20132;-65
2023/04/19 03:29:17;;;;;;;9.40;4.72;;;10.90;99.90;;;;;;4904496;29;20111;-65
2023/04/19 03:31:43;;;;;;;7.05;5.15;;;10.80;99.90;;;;;;4904084;28;20094;-65
2023/04/19 03:34:08;;;;;;;8.30;5.00;;;10.90;99.90;;;;;;4906611;29;20493;-64
2023/04/19 03:36:34;;;;;;;13.27;5.47;;;10.80;99.90;;;;;;4902899;28;20021;-65
2023/04/19 03:39:01;;;;;;;9.00;5.65;;;10.80;99.90;;;;;;4899821;29;20020;-65
2023/04/19 03:41:26;;;;;;;10.25;4.43;;;10.80;99.90;;;;;;4899966;29;20032;-65
2023/04/19 03:43:52;;;;;;;9.00;5.05;;;10.80;99.90;;;;;;4905296;28;20032;-64
2023/04/19 03:46:18;;;;;;;6.72;4.47;;;10.80;99.90;;;;;;4907963;29;20031;-65
2023/04/19 03:48:43;;;;;;;7.30;5.10;;;10.70;99.90;;;;;;4902570;29;20498;-66
2023/04/19 03:51:09;;;;;;;8.25;5.07;;;10.80;99.90;;;;;;4906489;28;20032;-68
2023/04/19 03:53:35;;;;;;;12.48;5.00;;;10.70;99.90;;;;;;4901028;29;20454;-65
2023/04/19 03:56:01;;;;;;;7.63;4.85;;;10.70;99.90;;;;;;4907839;28;20032;-65
2023/04/19 03:58:27;;;;;;;9.00;5.95;;;10.70;99.90;;;;;;4908713;29;20031;-64
2023/04/19 04:00:52;;;;;;;9.73;5.07;;;10.70;99.90;;;;;;4900981;29;20055;-64
2023/04/19 04:03:18;;;;;;;10.68;5.50;;;10.70;99.90;;;;;;4900701;29;20506;-65
2023/04/19 04:05:44;;;;;;;8.95;6.03;;;10.70;99.90;;;;;;4902912;28;20035;-63
2023/04/19 04:08:09;;;;;;;12.48;5.75;;;10.70;99.90;;;;;;4912984;28;20545;-65
2023/04/19 04:10:35;;;;;;;7.05;4.72;;;10.70;99.90;;;;;;4902354;28;20025;-65
2023/04/19 04:13:01;;;;;;;10.25;5.68;;;10.70;99.90;;;;;;4902991;28;20189;-65
2023/04/19 04:15:26;;;;;;;9.43;4.53;;;10.70;99.90;;;;;;4903423;28;20166;-65
2023/04/19 04:17:52;;;;;;;10.60;5.15;;;10.60;99.90;;;;;;4908561;29;20402;-65
2023/04/19 04:20:18;;;;;;;9.48;4.85;;;10.60;99.90;;;;;;4887560;28;20053;-64
2023/04/19 04:22:45;;;;;;;8.25;5.18;;;10.60;99.90;;;;;;4898745;29;20040;-65
2023/04/19 04:25:11;;;;;;;8.70;5.05;;;10.60;99.90;;;;;;4912978;29;20029;-64
2023/04/19 04:27:38;;;;;;;7.60;5.10;;;10.60;99.90;;;;;;4905112;29;20036;-64
2023/04/19 04:30:05;;;;;;;9.50;5.13;;;10.60;99.90;;;;;;4906088;29;20032;-64
2023/04/19 04:32:34;;;;;;;10.00;6.18;;;10.60;99.90;;;;;;4905988;29;20537;-64
2023/04/19 04:35:03;;;;;;;7.85;4.97;;;10.50;99.90;;;;;;4905120;28;20036;-65
2023/04/19 04:37:32;;;;;;;7.65;4.72;;;10.50;99.90;;;;;;4906821;28;20594;-65
2023/04/19 04:39:59;;;;;;;7.50;5.18;;;10.50;99.90;;;;;;4897338;29;20025;-66
2023/04/19 04:42:25;;;;;;;15.88;5.57;;;10.60;99.90;;;;;;4903596;28;20081;-67
2023/04/19 04:44:51;;;;;;;11.75;5.00;;;10.60;99.90;;;;;;4915556;28;20674;-64
2023/04/19 04:47:17;;;;;;;10.30;4.82;;;10.50;99.90;;;;;;4906442;29;20043;-66
2023/04/19 04:49:42;;;;;;;9.20;5.43;;;10.50;99.90;;;;;;4898595;29;20103;-66
2023/04/19 04:52:08;;;;;;;10.02;5.90;;;10.50;99.90;;;;;;4926250;28;20429;-66
2023/04/19 04:54:34;;;;;;;11.98;5.82;;;10.50;99.90;;;;;;4910411;28;20163;-65
2023/04/19 04:57:00;;;;;;;9.45;5.07;;;10.50;99.90;;;;;;4904538;28;20024;-65
2023/04/19 04:59:26;;;;;;;8.63;5.32;;;10.60;99.90;;;;;;4907065;29;20028;-65
2023/04/19 05:01:51;;;;;;;9.82;5.88;;;10.50;99.90;;;;;;4905016;28;20035;-65
2023/04/19 05:04:18;;;;;;;12.13;6.70;;;10.50;99.90;;;;;;4901101;29;20177;-66
2023/04/19 05:06:43;;;;;;;10.30;6.25;;;10.50;99.90;;;;;;4907192;29;20490;-64
2023/04/19 05:09:10;;;;;;;11.65;6.65;;;10.50;99.90;;;;;;4906499;29;20043;-65
2023/04/19 05:11:36;;;;;;;8.73;5.57;;;10.50;99.90;;;;;;4908272;29;20028;-65
2023/04/19 05:14:02;;;;;;;15.20;6.55;;;10.50;99.90;;;;;;4906450;28;20059;-65
2023/04/19 05:16:28;;;;;;;14.00;7.22;;;10.50;99.90;;;;;;4906222;29;20024;-65
2023/04/19 05:18:53;;;;;;;11.38;7.05;;;10.50;99.90;;;;;;4882593;28;20043;-64
2023/04/19 05:21:19;;;;;;;10.82;6.95;;;10.50;99.90;;;;;;4904264;28;20171;-65
2023/04/19 05:23:45;;;;;;;12.25;7.15;;;10.60;99.90;;;;;;4904343;29;20040;-64
2023/04/19 05:26:14;;;;;;;17.70;7.97;;;10.50;99.90;;;;;;4908013;28;20028;-65
2023/04/19 05:28:40;;;;;;;11.27;6.88;;;10.60;99.90;;;;;;4909494;29;20032;-65
2023/04/19 05:31:07;;;;;;;11.25;6.65;;;10.60;99.90;;;;;;4910085;29;20044;-64
2023/04/19 05:33:33;;;;;;;10.18;6.32;;;10.50;99.90;;;;;;4909336;29;20038;-65
2023/04/19 05:35:59;;;;;;;13.15;7.55;;;10.50;99.90;;;;;;4901060;28;20024;-64
2023/04/19 05:38:24;;;;;;;14.77;7.07;;;10.50;99.90;;;;;;4907269;29;20050;-65
2023/04/19 05:40:50;;;;;;;11.32;7.05;;;10.60;99.90;;;;;;4908530;28;20043;-64
2023/04/19 05:43:15;;;;;;;14.05;8.07;;;10.60;99.90;;;;;;4907115;28;20035;-64
2023/04/19 05:45:41;;;;;;;17.92;7.80;;;10.60;99.90;;;;;;4909853;29;20040;-65
2023/04/19 05:48:07;;;;;;;15.30;6.47;;;10.60;99.90;;;;;;4911416;28;20449;-65
2023/04/19 05:50:35;;;;;;;14.65;7.13;;;10.60;99.90;;;;;;4912301;28;20450;-64
2023/04/19 05:53:00;;;;;;;14.20;6.90;;;10.60;99.90;;;;;;4908397;28;20028;-63
2023/04/19 05:55:26;;;;;;;11.85;7.38;;;10.60;99.90;;;;;;4911266;28;20020;-65
2023/04/19 05:57:51;;;;;;;13.63;7.22;;;10.60;99.90;;;;;;4908637;29;20548;-65
2023/04/19 06:00:17;;;;;;;11.40;7.70;;;10.60;99.90;;;;;;4908474;28;20052;-65
2023/04/19 06:02:43;;;;;;;16.45;8.93;;;10.60;99.90;;;;;;4907201;29;20413;-64
2023/04/19 06:05:09;;;;;;;12.05;7.25;;;10.60;99.90;;;;;;4909160;29;20034;-64
2023/04/19 06:07:35;;;;;;;14.85;7.57;;;10.60;99.90;;;;;;4909906;28;20040;-65
2023/04/19 06:10:00;;;;;;;13.30;7.47;;;10.70;99.90;;;;;;4911716;29;20112;-66
2023/04/19 06:12:26;;;;;;;12.75;7.00;;;10.70;99.90;;;;;;4909495;28;20032;-65
2023/04/19 06:14:52;;;;;;;13.55;7.60;;;10.70;99.90;;;;;;4911070;29;20740;-64
2023/04/19 06:17:22;;;;;;;12.85;7.80;;;10.80;99.90;;;;;;4907652;29;20035;-65
2023/04/19 06:19:48;;;;;;;15.02;7.75;;;10.80;99.90;;;;;;4890779;29;20063;-65
2023/04/19 06:22:13;;;;;;;11.05;7.28;;;10.90;99.90;;;;;;4910143;29;20413;-65
2023/04/19 06:24:39;;;;;;;15.05;7.95;;;10.90;99.90;;;;;;4910366;29;20108;-65
2023/04/19 06:27:04;;;;;;;11.80;7.22;;;11.00;99.90;;;;;;4904161;29;20032;-64
2023/04/19 06:29:30;;;;;;;13.77;7.35;;;11.10;99.90;;;;;;4910726;28;20039;-65
2023/04/19 06:31:56;;;;;;;11.45;7.25;;;11.00;99.90;;;;;;4906320;28;20025;-65
2023/04/19 06:34:21;;;;;;;15.98;7.28;;;11.10;99.90;;;;;;4906190;28;20032;-65
2023/04/19 06:36:47;;;;;;;12.23;6.50;;;11.20;99.90;;;;;;4909768;29;20100;-65
2023/04/19 06:39:13;;;;;;;13.38;6.97;;;11.10;99.90;;;;;;4911180;29;20394;-65
2023/04/19 06:41:39;;;;;;;9.07;6.18;;;11.10;99.90;;;;;;4901767;29;20188;-64
2023/04/19 06:44:05;;;;;;;10.02;6.55;;;11.10;99.90;;;;;;4909949;28;20035;-65
2023/04/19 06:46:30;;;;;;;12.70;6.28;;;11.20;99.90;;;;;;4908318;28;20044;-65
2023/04/19 06:48:56;;;;;;;9.95;6.05;;;11.10;99.90;;;;;;4910948;29;20032;-65
2023/04/19 06:51:21;;;;;;;10.60;5.57;;;11.10;99.90;;;;;;4907676;28;20048;-64
2023/04/19 06:53:48;;;;;;;8.73;5.47;;;11.30;99.90;;;;;;4910523;29;20036;-64
2023/04/19 06:56:14;;;;;;;7.53;5.10;;;11.40;99.90;;;;;;4908747;29;20028;-65
2023/04/19 06:58:39;;;;;;;8.57;5.22;;;11.40;99.90;;;;;;4904792;28;20127;-64
2023/04/19 07:01:05;;;;;;;7.78;5.28;;;11.50;99.90;;;;;;4898409;28;20039;-65
2023/04/19 07:03:31;;;;;;;7.35;4.90;;;11.60;99.90;;;;;;4903869;28;20036;-65
2023/04/19 07:05:56;;;;;;;13.65;4.82;;;11.70;99.90;;;;;;4893541;29;20087;-65
2023/04/19 07:08:23;;;;;;;6.78;4.15;;;11.60;99.90;;;;;;4901883;28;20107;-65
2023/04/19 07:10:49;;;;;;;6.90;4.50;;;11.90;99.90;;;;;;4904850;29;20024;-65
2023/04/19 07:13:14;;;;;;;9.85;5.72;;;11.90;99.90;;;;;;4898519;29;20127;-65
2023/04/19 07:15:40;;;;;;;7.63;4.00;;;12.10;99.90;;;;;;4897628;28;20021;-65
2023/04/19 07:18:06;;;;;;;8.15;4.80;;;13.50;99.90;;;;;;4908647;29;20029;-65
2023/04/19 07:20:32;;;;;;;5.93;3.83;;;15.00;99.90;;;;;;4881577;28;20079;-65
2023/04/19 07:22:58;;;;;;;5.88;4.22;;;16.60;97.70;;;;;;4909942;29;20111;-64
2023/04/19 07:25:24;;;;;;;5.50;3.95;;;17.50;96.70;;;;;;4911561;28;20107;-65
2023/04/19 07:27:52;;;;;;;10.13;4.10;;;17.60;95.00;;;;;;4908971;29;20566;-65
2023/04/19 07:30:18;;;;;;;7.50;4.50;;;16.70;95.70;;;;;;4904846;29;20024;-65
2023/04/19 07:32:44;;;;;;;8.57;4.10;;;15.90;96.20;;;;;;4905128;28;20035;-65
2023/04/19 07:35:10;;;;;;;5.90;4.25;;;15.20;97.50;;;;;;4908299;29;20020;-64
2023/04/19 07:37:36;;;;;;;6.18;4.40;;;15.20;98.10;;;;;;4908525;29;20090;-64
2023/04/19 07:40:02;;;;;;;8.32;5.00;;;15.40;97.80;;;;;;4902802;28;20771;-64
2023/04/19 07:42:29;;;;;;;10.23;4.38;;;16.30;97.50;;;;;;4899208;29;20083;-65
2023/04/19 07:44:55;;;;;;;7.72;4.53;;;17.90;96.00;;;;;;4903167;29;20028;-65
2023/04/19 07:47:21;;;;;;;6.43;3.50;;;19.30;92.50;;;;;;4906680;29;20024;-65
2023/04/19 07:49:50;;;;;;;10.95;4.05;;;20.10;92.30;;;;;;4908172;28;20113;-65
2023/04/19 07:52:17;;;;;;;4.45;2.80;;;21.30;89.30;;;;;;4903789;29;20024;-65
2023/04/19 07:54:42;;;;;;;4.28;3.28;;;21.30;86.10;;;;;;4909386;29;20465;-66
2023/04/19 07:57:08;;;;;;;4.95;2.70;;;21.70;84.90;;;;;;4903043;29;20025;-66
2023/04/19 07:59:34;;;;;;;5.28;3.33;;;22.00;84.80;;;;;;4908699;29;20060;-66
2023/04/19 08:02:00;;;;;;;5.18;3.15;;;21.50;84.10;;;;;;4905949;29;20119;-65
2023/04/19 08:04:25;;;;;;;7.30;3.08;;;21.40;83.60;;;;;;4908429;28;20625;-65
2023/04/19 08:06:51;;;;;;;5.88;3.30;;;22.10;83.40;;;;;;4906684;29;20564;-65
2023/04/19 08:09:17;;;;;;;11.50;3.25;;;21.80;81.30;;;;;;4903362;28;20060;-65
2023/04/19 08:11:43;;;;;;;4.70;3.10;;;22.00;82.60;;;;;;4897121;29;20486;-65
2023/04/19 08:14:08;;;;;;;8.73;2.60;;;22.40;82.20;;;;;;4905464;29;20371;-66
2023/04/19 08:16:34;;;;;;;5.40;2.90;;;23.30;77.60;;;;;;4912587;29;20102;-66
2023/04/19 08:19:00;;;;;;;5.03;2.90;;;23.50;75.90;;;;;;4909456;29;20024;-66
2023/04/19 08:21:25;;;;;;;4.10;2.65;;;23.50;76.70;;;;;;4891466;28;20148;-66
2023/04/19 08:23:51;;;;;;;6.30;2.78;;;23.50;74.40;;;;;;4903900;29;20040;-65
2023/04/19 08:26:17;;;;;;;7.63;2.97;;;23.40;72.60;;;;;;4912160;28;20020;-66
2023/04/19 08:28:42;;;;;;;3.53;2.55;;;22.90;74.00;;;;;;4910668;29;20456;-66
2023/04/19 08:31:09;;;;;;;4.00;2.75;;;23.00;76.30;;;;;;4907144;29;20065;-66
2023/04/19 08:33:34;;;;;;;4.90;2.60;;;23.40;73.60;;;;;;4909611;29;20029;-65
2023/04/19 08:36:00;;;;;;;4.68;2.63;;;23.50;70.80;;;;;;4908728;28;20115;-66
2023/04/19 08:38:26;;;;;;;4.75;2.92;;;23.30;71.80;;;;;;4908988;29;20048;-66
2023/04/19 08:40:53;;;;;;;3.58;2.45;;;23.00;71.00;;;;;;4904454;29;20506;-65
2023/04/19 08:43:20;;;;;;;3.72;2.50;;;22.60;71.20;;;;;;4904958;28;20086;-66
2023/04/19 08:45:49;;;;;;;4.63;2.65;;;22.30;71.00;;;;;;4896921;29;20032;-65
2023/04/19 08:48:16;;;;;;;6.88;2.47;;;22.10;71.60;;;;;;4912398;29;20056;-65
2023/04/19 08:50:44;;;;;;;8.63;2.58;;;22.00;70.70;;;;;;4910888;29;20504;-65
2023/04/19 08:53:10;;;;;;;4.80;2.88;;;21.30;70.90;;;;;;4911785;29;20478;-65
2023/04/19 08:55:39;;;;;;;4.97;3.13;;;20.80;72.50;;;;;;4913794;28;20501;-65
2023/04/19 08:58:05;;;;;;;5.53;2.50;;;20.70;73.40;;;;;;4909036;28;20021;-65
2023/04/19 09:00:32;;;;;;;5.97;2.20;;;20.90;72.50;;;;;;4912377;29;20077;-66
2023/04/19 09:02:58;;;;;;;4.78;2.75;;;20.60;74.40;;;;;;4910274;28;20387;-65
2023/04/19 09:05:24;;;;;;;3.70;2.63;;;21.10;70.80;;;;;;4908480;29;20035;-65
2023/04/19 09:07:50;;;;;;;8.45;2.85;;;21.60;71.90;;;;;;4906515;28;20032;-66
2023/04/19 09:10:18;;;;;;;5.30;3.03;;;21.90;68.50;;;;;;4901798;28;20028;-66
2023/04/19 09:13:02;;;;;;;4.72;2.65;;;22.00;70.90;;;;;;4906497;28;20486;-65
2023/04/19 09:15:37;;;;;;;7.47;3.53;;;22.70;69.40;;;;;;4907332;29;20032;-66
2023/04/19 09:18:05;;;;;;;4.72;2.42;;;22.30;68.30;;;;;;4903761;29;20059;-66
2023/04/19 09:20:41;;;;;;;5.05;3.22;;;22.50;67.40;;;;;;4907995;29;20612;-65
2023/04/19 09:23:11;;;;;;;7.28;3.03;;;21.60;68.40;;;;;;4908001;28;20413;-66
2023/04/19 09:25:37;;;;;;;5.03;2.80;;;21.20;71.20;;;;;;4929296;28;20024;-66
2023/04/19 09:28:13;;;;;;;5.95;3.05;;;20.90;69.20;;;;;;4925074;28;20040;-65
2023/04/19 09:30:40;;;;;;;7.07;2.80;;;20.80;70.60;;;;;;4925233;28;20039;-65
2023/04/19 09:33:06;;;;;;;7.93;3.03;;;20.90;69.70;;;;;;4921290;28;20111;-65
2023/04/19 09:35:47;;;;;;;5.32;2.78;;;20.70;69.80;;;;;;4930781;29;20491;-64
2023/04/19 09:38:13;;;;;;;3.63;2.33;;;21.80;68.10;;;;;;4911173;28;20020;-65
2023/04/19 09:40:39;;;;;;;4.57;2.50;;;21.50;67.40;;;;;;4924306;28;20036;-66
2023/04/19 09:43:06;;;;;;;4.45;2.65;;;20.70;70.40;;;;;;4930019;28;20032;-66
2023/04/19 09:45:40;;;;;;;7.78;2.88;;;20.60;70.20;;;;;;4927614;29;20417;-65
2023/04/19 09:48:06;;;;;;;4.18;2.75;;;20.60;70.40;;;;;;4927024;28;20028;-65
2023/04/19 09:50:32;;;;;;;4.95;2.60;;;20.50;69.70;;;;;;4929268;28;20039;-65
2023/04/19 09:52:59;;;;;;;4.00;2.75;;;20.10;69.30;;;;;;4925398;28;20038;-65
2023/04/19 09:55:25;;;;;;;6.85;2.65;;;19.90;69.60;;;;;;4928465;28;20032;-66
2023/04/19 09:57:52;;;;;;;6.57;3.05;;;19.90;70.10;;;;;;4928376;28;20047;-65
2023/04/19 10:00:20;;;;;;;4.90;2.80;;;19.50;70.00;;;;;;4911120;28;20042;-64
2023/04/19 10:02:53;;;;;;;5.40;2.63;;;18.90;68.50;;;;;;4910419;28;20031;-64
2023/04/19 10:05:20;;;;;;;5.13;2.70;;;18.50;69.10;;;;;;4926667;28;20038;-64
2023/04/19 10:07:46;;;;;;;3.97;2.60;;;18.50;71.40;;;;;;4931744;28;20036;-66
2023/04/19 10:10:15;;;;;;;4.57;2.83;;;18.50;70.60;;;;;;4924777;28;20077;-65
2023/04/19 10:12:43;;;;;;;5.50;2.97;;;18.70;71.80;;;;;;4923795;28;20039;-65
2023/04/19 10:15:10;;;;;;;6.03;3.13;;;18.80;71.30;;;;;;4937154;28;20099;-64
2023/04/19 10:17:36;;;;;;;6.63;2.60;;;18.50;70.20;;;;;;4949997;28;20409;-64
2023/04/19 10:20:07;;;;;;;4.75;3.25;;;18.60;71.70;;;;;;4912773;28;20032;-65
2023/04/19 10:22:37;;;;;;;4.22;2.80;;;18.20;70.10;;;;;;4909963;28;20051;-66
2023/04/19 10:25:11;;;;;;;5.50;3.00;;;17.90;71.10;;;;;;4911936;28;20031;-65
2023/04/19 10:27:38;;;;;;;8.38;3.05;;;17.60;71.60;;;;;;4924239;29;20027;-65
2023/04/19 10:30:09;;;;;;;4.72;2.67;;;17.50;73.50;;;;;;4928220;29;20028;-66
2023/04/19 10:32:39;;;;;;;5.30;2.92;;;17.80;73.30;;;;;;4925602;29;20028;-66
2023/04/19 10:35:19;;;;;;;9.15;2.67;;;17.60;72.60;;;;;;4927469;29;20016;-65
2023/04/19 10:38:10;;;;;;;7.22;3.10;;;17.70;72.90;;;;;;4928519;29;20024;-66
2023/04/19 10:40:52;;;;;;;6.38;2.55;;;17.90;74.50;;;;;;4934328;28;20037;-66
2023/04/19 10:43:18;;;;;;;5.50;2.40;;;17.90;69.60;;;;;;4935372;28;20027;-66
2023/04/19 10:45:45;;;;;;;8.70;2.80;;;17.70;70.80;;;;;;4923059;28;20035;-65
2023/04/19 10:48:29;;;;;;;8.05;2.30;;;17.50;68.40;;;;;;4930569;28;20042;-65
2023/04/19 10:51:28;;;;;;;3.95;1.98;;;17.40;68.60;;;;;;4928765;28;20059;-66
2023/04/19 10:54:03;;;;;;;5.30;1.95;;;17.10;69.00;;;;;;4931714;28;20034;-65
2023/04/19 10:56:34;;;;;;;3.58;1.73;;;17.20;69.90;;;;;;4931434;28;20086;-66
2023/04/19 10:59:00;;;;;;;3.22;1.85;;;17.20;68.70;;;;;;4930578;29;20028;-65
2023/04/19 11:01:32;;;;;;;5.15;2.40;;;17.30;67.50;;;;;;4930079;28;21529;-65
2023/04/19 11:03:58;;;;;;;4.82;2.30;;;17.30;68.00;;;;;;4931194;28;20031;-65
2023/04/19 11:06:26;;;;;;;3.70;1.63;;;17.40;69.70;;;;;;4933287;28;20444;-65
2023/04/19 11:08:52;;;;;;;2.55;1.90;;;17.60;67.60;;;;;;4929837;28;20027;-65
2023/04/19 11:11:20;;;;;;;3.60;2.03;;;17.70;66.60;;;;;;4931076;28;20036;-65
2023/04/19 11:13:49;;;;;;;2.97;2.20;;;17.40;65.00;;;;;;4929843;29;20031;-65
2023/04/19 11:16:15;;;;;;;2.88;1.98;;;17.10;66.50;;;;;;4929013;29;20085;-65
2023/04/19 11:18:40;;;;;;;8.07;2.30;;;17.20;65.70;;;;;;4924400;29;20028;-65
2023/04/19 11:21:06;;;;;;;9.77;2.60;;;16.90;67.60;;;;;;4930760;28;20028;-65
2023/04/19 11:23:31;;;;;;;5.38;3.20;;;16.90;70.60;;;;;;4907292;28;20052;-66
2023/04/19 11:25:58;;;;;;;5.07;2.80;;;16.60;70.10;;;;;;4930046;28;20027;-65
2023/04/19 11:28:23;;;;;;;5.68;2.67;;;16.40;72.00;;;;;;4930479;29;20561;-64
2023/04/19 11:30:49;;;;;;;3.65;2.67;;;16.10;71.20;;;;;;4929468;29;20103;-65
2023/04/19 11:33:23;;;;;;;5.60;2.38;;;15.90;72.40;;;;;;4929776;28;20078;-65
2023/04/19 11:35:49;;;;;;;3.75;2.65;;;15.90;73.00;;;;;;4926207;28;20032;-65
2023/04/19 11:38:15;;;;;;;3.22;2.22;;;16.00;72.70;;;;;;4927179;28;20035;-64
2023/04/19 11:40:41;;;;;;;3.67;2.35;;;16.10;73.30;;;;;;4931244;29;20032;-65
2023/04/19 11:43:07;;;;;;;2.75;1.90;;;16.00;70.80;;;;;;4930289;29;20034;-65
2023/04/19 11:45:37;;;;;;;5.03;2.00;;;16.00;72.80;;;;;;4930161;29;20548;-65
2023/04/19 11:48:06;;;;;;;4.18;2.47;;;16.00;72.80;;;;;;4932534;29;20085;-65
2023/04/19 11:50:38;;;;;;;9.20;2.17;;;16.10;69.40;;;;;;4925674;29;20520;-64
2023/04/19 11:53:21;;;;;;;3.95;1.63;;;16.00;67.20;;;;;;4927754;28;20046;-65
2023/04/19 11:55:55;;;;;;;2.05;1.70;;;16.00;69.90;;;;;;4928023;28;20531;-65
2023/04/19 11:58:35;;;;;;;4.90;1.48;;;16.10;67.80;;;;;;4926871;28;20146;-65
2023/04/19 12:01:10;;;;;;;3.88;1.67;;;16.10;67.00;;;;;;4929041;29;21216;-66
2023/04/19 12:03:52;;;;;;;3.75;1.33;;;15.90;66.50;;;;;;4928210;29;20142;-66
2023/04/19 12:06:25;;;;;;;2.03;1.48;;;15.70;69.40;;;;;;4925766;29;20031;-66
2023/04/19 12:08:52;;;;;;;6.13;1.20;;;15.70;67.10;;;;;;4929461;28;21882;-66
2023/04/19 12:11:39;;;;;;;0.90;0.85;;;15.60;59.20;;;;;;4936552;28;20553;-66
2023/04/19 12:14:12;;;;;;;3.22;1.27;;;15.70;55.90;;;;;;4925573;28;20048;-65
2023/04/19 12:16:38;;;;;;;1.77;1.38;;;15.60;59.90;;;;;;4927830;28;21733;-65
2023/04/19 12:19:14;;;;;;;3.90;1.70;;;15.70;64.60;;;;;;4941280;28;20118;-66
2023/04/19 12:21:40;;;;;;;1.48;1.23;;;15.60;63.60;;;;;;4921480;28;20047;-65
2023/04/19 12:24:06;;;;;;;6.10;1.55;;;15.50;65.80;;;;;;4928054;28;20451;-66
2023/04/19 12:26:32;;;;;;;1.70;1.30;;;15.50;69.50;;;;;;4924268;28;20042;-66
2023/04/19 12:28:59;;;;;;;4.15;1.67;;;15.60;62.50;;;;;;4930692;28;20028;-65
2023/04/19 12:31:25;;;;;;;3.25;1.05;;;15.70;57.70;;;;;;4931212;29;20086;-65
2023/04/19 12:33:51;;;;;;;3.08;1.25;;;15.60;61.20;;;;;;4936434;29;20024;-66
2023/04/19 12:36:16;;;;;;;3.17;1.20;;;15.60;63.10;;;;;;4938818;29;20028;-65
2023/04/19 12:38:42;;;;;;;4.10;1.20;;;15.60;63.80;;;;;;4912681;28;20485;-66
2023/04/19 12:41:07;;;;;;;5.90;1.20;;;15.60;63.50;;;;;;4925389;28;20029;-65
2023/04/19 12:43:33;;;;;;;3.33;1.40;;;15.60;64.10;;;;;;4928360;28;20106;-65
2023/04/19 12:45:59;;;;;;;4.13;1.75;;;15.50;64.90;;;;;;4930161;29;20724;-65